EW2817 Weather Reports


Display with metric or nautical units.
time (UTC)temp
F
wind
direction
speed
MPH
gust
MPH
rain 1hr
in
rain 24hr
in
rain mn
in
humidity
%
barometer
mb
20240622191727 90 0 0.0 0.0 0.00 0.00 0.00 57 994.3
20240622190227 91 0 0.0 0.0 0.00 0.00 0.00 57 994.4
20240622184726 93 0 0.0 0.0 0.00 0.00 0.00 56 994.5
20240622183224 93 0 0.0 0.0 0.00 0.00 0.00 55 994.8
20240622181720 93 0 0.0 0.0 0.00 0.00 0.00 54 995.0
20240622180221 94 0 0.0 0.0 0.00 0.00 0.00 56 995.1
20240622171721 91 0 0.0 0.0 0.00 0.00 0.00 60 995.7
20240622170220 89 0 0.0 0.0 0.00 0.00 0.00 64 995.9
20240622163220 91 0 0.0 0.0 0.00 0.00 0.00 60 996.4
20240622161716 91 0 0.0 0.0 0.00 0.00 0.00 62 996.6
20240622160215 91 0 0.0 0.0 0.00 0.00 0.00 63 996.8
20240622153212 89 0 0.0 0.0 0.00 0.00 0.00 67 996.9
20240622151711 89 0 0.0 0.0 0.00 0.00 0.00 69 996.8
20240622144708 87 0 0.0 0.0 0.00 0.00 0.00 73 996.8
20240622141705 84 0 0.0 0.0 0.00 0.00 0.00 78 997.1
20240622140204 82 0 0.0 0.0 0.00 0.00 0.00 82 997.2
20240622134702 80 0 0.0 0.0 0.00 0.00 0.00 85 997.2
20240622131700 78 0 0.0 0.0 0.00 0.00 0.00 90 997.3
20240622130158 77 0 0.0 0.0 0.00 0.00 0.00 91 997.5
20240622123155 75 0 0.0 0.0 0.00 0.00 0.00 92 997.7
20240622120151 74 0 0.0 0.0 0.00 0.00 0.00 93 997.7
20240622114650 73 0 0.0 0.0 0.00 0.00 0.00 93 997.6
20240622111649 72 0 0.0 0.0 0.00 0.00 0.00 93 997.6
20240622110149 72 0 0.0 0.0 0.00 0.00 0.00 93 997.5
20240622104651 72 0 0.0 0.0 0.00 0.00 0.00 93 997.4
20240622103148 73 0 0.0 0.0 0.00 0.00 0.00 93 997.4
20240622101645 73 0 0.0 0.0 0.00 0.00 0.00 93 997.4
20240622100147 73 0 0.0 0.0 0.00 0.00 0.00 93 997.4
20240622094643 73 0 0.0 0.0 0.00 0.00 0.00 93 997.4
20240622093144 73 0 0.0 0.0 0.00 0.00 0.00 93 997.4
20240622091638 73 0 0.0 0.0 0.00 0.00 0.00 92 997.4
20240622084633 73 0 0.0 0.0 0.00 0.00 0.00 92 997.4
20240622083134 73 0 0.0 0.0 0.00 0.00 0.00 91 997.4
20240622081631 73 0 0.0 0.0 0.00 0.00 0.00 90 997.4
20240622080131 74 0 0.0 0.0 0.00 0.00 0.00 90 997.4
20240622074631 74 0 0.0 0.0 0.00 0.00 0.00 90 997.5
20240622073130 74 0 0.0 0.0 0.00 0.00 0.00 89 997.6
20240622071630 74 0 0.0 0.0 0.00 0.00 0.00 88 997.5
20240622070129 74 0 0.0 0.0 0.00 0.00 0.00 87 997.7
20240622064629 74 0 0.0 0.0 0.00 0.00 0.00 85 997.8
20240622063127 75 0 0.0 0.0 0.00 0.00 0.00 84 997.8
20240622061625 75 0 0.0 0.0 0.00 0.00 0.00 82 997.9
20240622060123 75 0 0.0 0.0 0.00 0.00 0.00 81 997.8
20240622053119 76 0 0.0 0.0 0.00 0.00 0.00 80 998.2
20240622051617 76 0 0.0 0.0 0.00 0.00 0.00 79 998.3
20240622050116 76 0 0.0 0.0 0.00 0.00 0.00 78 998.3
20240622044615 76 0 0.0 0.0 0.00 0.00 0.00 77 998.3
20240622043113 76 0 0.0 0.0 0.00 0.00 0.00 77 998.3
20240622041611 76 0 0.0 0.0 0.00 0.00 0.00 75 998.3
20240622040112 76 0 0.0 0.0 0.00 0.00 0.00 74 998.3
20240622034608 76 0 0.0 0.0 0.00 0.00 0.00 73 998.3
20240622033107 77 0 0.0 0.0 0.00 0.00 0.00 71 998.1
20240622031606 77 0 0.0 0.0 0.00 0.00 0.00 69 997.9
20240622030106 78 0 0.0 0.0 0.00 0.00 0.00 69 997.8
20240622021606 78 0 0.0 0.0 0.00 0.00 0.00 71 997.7
20240622020104 79 0 0.0 0.0 0.00 0.00 0.00 71 997.6
20240622014600 79 0 0.0 0.0 0.00 0.00 0.00 70 997.5
20240622013058 80 0 0.0 0.0 0.00 0.00 0.00 70 997.3
20240622011554 81 0 0.0 0.0 0.00 0.00 0.00 69 997.2
20240622004552 83 0 0.0 0.0 0.00 0.00 0.00 66 997.2
20240622003052 83 0 0.0 0.0 0.00 0.00 0.00 66 997.1
20240622001552 83 0 0.0 0.0 0.00 0.00 0.00 65 997.2
20240621234551 85 0 0.0 0.0 0.00 0.00 0.00 65 997.2
20240621233051 85 0 0.0 0.0 0.00 0.00 0.00 64 997.3
20240621231552 86 0 0.0 0.0 0.00 0.00 0.00 62 997.3
20240621230051 86 0 0.0 0.0 0.00 0.00 0.00 60 997.3
20240621224549 87 0 0.0 0.0 0.00 0.00 0.00 59 997.3
20240621223050 87 0 0.0 0.0 0.00 0.00 0.00 57 997.3
20240621220047 88 0 0.0 0.0 0.00 0.00 0.00 55 997.3
20240621214547 88 0 0.0 0.0 0.00 0.00 0.00 56 997.4
20240621211548 89 0 0.0 0.0 0.00 0.00 0.00 51 997.7
20240621210047 89 0 0.0 0.0 0.00 0.00 0.00 54 997.9
20240621204547 89 0 0.0 0.0 0.00 0.00 0.00 54 998.0
20240621201545 89 0 0.0 0.0 0.00 0.00 0.00 52 998.2
20240621200045 89 0 0.0 0.0 0.00 0.00 0.00 52 998.3